Aviation Digital Data Service (ADDS)

Output produced by TAFs form (0329 UTC 16 December 2017)
found at http://www.aviationweather.gov/adds/tafs/
 
KTCL 160253Z 00000KT 10SM CLR M02/M03 A3027 RMK AO2 SLP251 T10171028 51014
KTCL 152325Z 1600/1624 31002KT P6SM OVC250 
     FM161600 19005KT P6SM OVC250